Time;durP1;ratioP1;P1;durP2;ratioP2;P2;SDS_P1;SDS_P2;PMS_P1;PMS_P2;Temp;Humidity;BMP_temperature;BMP_pressure;BME280_temperature;BME280_humidity;BME280_pressure;Samples;Min_cycle;Max_cycle;Signal;HPM_P1;HPM_P2
2021/12/05 00:17:20;;;;;;;14.27;10.17;;;3.60;99.90;;;;;;6128778;28;20578;-66
2021/12/05 00:21:00;;;;;;;13.90;12.30;;;3.70;99.90;;;;;;6128557;28;20475;-67
2021/12/05 00:24:09;;;;;;;15.50;12.53;;;3.70;99.90;;;;;;6129129;28;20468;-66
2021/12/05 00:27:17;;;;;;;15.93;11.70;;;3.80;99.90;;;;;;6135827;28;20473;-67
2021/12/05 00:30:45;;;;;;;13.30;11.30;;;3.80;99.90;;;;;;6136977;28;20529;-66
2021/12/05 00:34:06;;;;;;;11.87;10.60;;;3.90;99.90;;;;;;6143360;28;20489;-67
2021/12/05 00:44:44;;;;;;;10.00;9.00;;;4.00;99.90;;;;;;6225896;28;20464;-66
2021/12/05 00:47:55;;;;;;;11.53;9.83;;;4.00;99.90;;;;;;6230913;28;20983;-66
2021/12/05 00:57:52;;;;;;;10.57;9.47;;;3.70;99.90;;;;;;6227985;28;20495;-66
2021/12/05 01:14:38;;;;;;;13.57;11.47;;;3.40;99.90;;;;;;6222896;28;20479;-66
2021/12/05 01:17:59;;;;;;;12.63;10.43;;;3.40;99.90;;;;;;6227559;28;20495;-66
2021/12/05 01:21:08;;;;;;;15.03;11.70;;;3.50;99.90;;;;;;6227859;28;20476;-66
2021/12/05 01:24:23;;;;;;;14.43;12.13;;;3.50;99.90;;;;;;6227366;28;20476;-66
2021/12/05 01:27:37;;;;;;;13.63;10.97;;;3.60;99.90;;;;;;6245064;28;20470;-66
2021/12/05 01:30:48;;;;;;;13.40;10.90;;;3.60;99.90;;;;;;6277023;28;20496;-66
2021/12/05 01:33:58;;;;;;;13.70;11.90;;;3.70;99.90;;;;;;6276426;28;20507;-67
2021/12/05 01:37:12;;;;;;;15.77;11.90;;;3.70;99.90;;;;;;6267048;28;20455;-67
2021/12/05 01:40:43;;;;;;;15.47;11.80;;;3.70;99.90;;;;;;6276157;28;20474;-66
2021/12/05 02:01:16;;;;;;;16.70;12.97;;;3.30;99.90;;;;;;6250254;28;20482;-66
2021/12/05 02:11:21;;;;;;;13.70;12.37;;;3.60;99.90;;;;;;6251057;28;20439;-66
2021/12/05 02:34:43;;;;;;;18.90;13.00;;;3.70;99.90;;;;;;6262649;28;20478;-65
2021/12/05 02:41:16;;;;;;;13.67;11.80;;;3.70;99.90;;;;;;6149833;28;20784;-65
2021/12/05 02:44:24;;;;;;;13.03;11.63;;;3.70;99.90;;;;;;6163848;28;20466;-65
2021/12/05 02:47:29;;;;;;;13.20;11.90;;;3.60;99.90;;;;;;6250120;28;20471;-65
2021/12/05 02:50:34;;;;;;;16.37;12.60;;;3.60;99.90;;;;;;6250155;28;20482;-65
2021/12/05 02:53:42;;;;;;;13.60;12.30;;;3.70;99.90;;;;;;6255784;28;20474;-64
2021/12/05 02:56:49;;;;;;;13.53;11.73;;;3.70;99.90;;;;;;6274707;28;20482;-64
2021/12/05 02:59:56;;;;;;;14.63;12.83;;;3.70;99.90;;;;;;6274964;28;20983;-65
2021/12/05 03:02:59;;;;;;;14.97;13.47;;;3.80;99.90;;;;;;6274927;28;20477;-65
2021/12/05 03:06:12;;;;;;;18.00;12.97;;;3.80;99.90;;;;;;6274544;28;20998;-66
2021/12/05 03:09:17;;;;;;;14.43;12.93;;;3.80;99.90;;;;;;6274976;28;20470;-64
2021/12/05 03:12:20;;;;;;;14.43;11.53;;;3.80;99.90;;;;;;6274292;28;20478;-64
2021/12/05 03:15:24;;;;;;;13.53;10.90;;;3.80;99.90;;;;;;6274650;28;20469;-64
2021/12/05 03:18:27;;;;;;;12.60;11.30;;;3.90;99.90;;;;;;6274646;28;20957;-64
2021/12/05 03:21:31;;;;;;;14.63;10.33;;;4.00;99.90;;;;;;6274056;28;20811;-64
2021/12/05 03:24:36;;;;;;;14.10;10.73;;;4.00;99.90;;;;;;6274157;28;20845;-64
2021/12/05 03:27:41;;;;;;;11.17;9.60;;;4.00;99.90;;;;;;6278793;28;20469;-64
2021/12/05 03:30:45;;;;;;;10.47;9.37;;;4.00;99.90;;;;;;6278983;28;20474;-64
2021/12/05 03:33:48;;;;;;;11.00;8.20;;;4.00;99.90;;;;;;6279178;28;20484;-64
2021/12/05 03:36:56;;;;;;;8.27;7.43;;;4.10;99.90;;;;;;6278631;28;20470;-65
2021/12/05 03:40:00;;;;;;;10.17;9.17;;;4.10;99.90;;;;;;6278811;28;20965;-65
2021/12/05 03:43:06;;;;;;;13.23;11.83;;;4.00;99.90;;;;;;6274057;28;20466;-65
2021/12/05 03:46:10;;;;;;;12.37;11.10;;;4.00;99.90;;;;;;6278600;28;20989;-65
2021/12/05 03:49:15;;;;;;;11.70;8.63;;;4.00;99.90;;;;;;6278444;28;20469;-65
2021/12/05 03:52:18;;;;;;;9.20;8.20;;;4.00;99.90;;;;;;6278798;28;20477;-65
2021/12/05 03:55:23;;;;;;;8.20;7.23;;;4.00;99.90;;;;;;6278597;28;20484;-64
2021/12/05 03:58:28;;;;;;;8.90;7.97;;;4.00;99.90;;;;;;6279165;28;20462;-65
2021/12/05 04:01:32;;;;;;;9.37;7.40;;;4.00;99.90;;;;;;6279769;28;20473;-65
2021/12/05 04:04:36;;;;;;;13.20;8.47;;;4.00;99.90;;;;;;6279078;28;20737;-64
2021/12/05 04:07:40;;;;;;;9.40;6.77;;;4.00;99.90;;;;;;6278817;28;20816;-64
2021/12/05 04:10:48;;;;;;;8.80;6.90;;;4.00;99.90;;;;;;6278412;28;20969;-64
2021/12/05 04:13:51;;;;;;;8.23;7.40;;;4.00;99.90;;;;;;6278311;28;20474;-64
2021/12/05 04:16:55;;;;;;;7.07;6.40;;;3.90;99.90;;;;;;6277681;28;20484;-65
2021/12/05 04:19:59;;;;;;;9.63;7.07;;;3.90;99.90;;;;;;6153056;28;20462;-66
2021/12/05 04:23:02;;;;;;;8.73;7.70;;;3.90;99.90;;;;;;6152425;28;20454;-65
2021/12/05 04:26:07;;;;;;;7.43;6.70;;;3.90;99.90;;;;;;6152972;28;20491;-65
2021/12/05 04:29:10;;;;;;;8.23;7.47;;;3.90;99.90;;;;;;6152362;28;20810;-66
2021/12/05 04:32:13;;;;;;;7.60;6.70;;;3.90;99.90;;;;;;6152811;28;20455;-65
2021/12/05 04:35:17;;;;;;;7.67;7.07;;;3.90;99.90;;;;;;6152514;28;20992;-65
2021/12/05 04:38:21;;;;;;;8.33;7.53;;;3.90;99.90;;;;;;6151753;28;20475;-65
2021/12/05 04:41:25;;;;;;;11.83;7.93;;;4.00;99.90;;;;;;6152636;28;20536;-65
2021/12/05 04:44:29;;;;;;;8.80;7.97;;;4.00;99.90;;;;;;6152679;28;20493;-65
2021/12/05 04:47:32;;;;;;;8.60;7.57;;;4.00;99.90;;;;;;6147942;28;20505;-65
2021/12/05 04:50:37;;;;;;;9.20;8.20;;;4.00;99.90;;;;;;6152262;28;20981;-65
2021/12/05 04:53:41;;;;;;;12.10;9.50;;;4.00;99.90;;;;;;6152011;28;20490;-65
2021/12/05 04:56:48;;;;;;;12.00;10.80;;;4.00;99.90;;;;;;6151694;28;20490;-65
2021/12/05 04:59:53;;;;;;;13.77;12.37;;;3.90;99.90;;;;;;6151951;28;20475;-65
2021/12/05 05:02:57;;;;;;;14.90;13.20;;;3.90;99.90;;;;;;6151596;28;20474;-65
2021/12/05 05:06:05;;;;;;;19.60;14.63;;;3.90;99.90;;;;;;6151913;28;20561;-65
2021/12/05 05:09:08;;;;;;;16.17;14.43;;;3.80;99.90;;;;;;6151934;28;20483;-65
2021/12/05 05:12:12;;;;;;;16.13;14.13;;;3.80;99.90;;;;;;6151553;28;20478;-65
2021/12/05 05:15:20;;;;;;;16.73;14.07;;;3.80;99.90;;;;;;6151314;28;21005;-65
2021/12/05 05:18:28;;;;;;;18.77;16.77;;;3.80;99.90;;;;;;6151713;28;20488;-65
2021/12/05 05:21:39;;;;;;;20.63;14.60;;;3.90;99.90;;;;;;6151414;28;20478;-65
2021/12/05 05:25:23;;;;;;;19.83;15.50;;;3.90;99.90;;;;;;6151576;28;20486;-65
2021/12/05 05:45:44;;;;;;;16.83;14.30;;;3.60;99.90;;;;;;6175455;28;20485;-64
2021/12/05 05:48:56;;;;;;;17.30;15.43;;;3.60;99.90;;;;;;6150743;28;20482;-65
2021/12/05 05:51:59;;;;;;;18.23;16.30;;;3.60;99.90;;;;;;6141728;28;20807;-66
2021/12/05 05:55:03;;;;;;;20.77;15.70;;;3.70;99.90;;;;;;6150743;28;20540;-66
2021/12/05 05:58:09;;;;;;;16.23;14.50;;;3.70;99.90;;;;;;6150798;28;20475;-65
2021/12/05 06:01:33;;;;;;;21.07;16.07;;;3.60;99.90;;;;;;6150301;28;20486;-65
2021/12/05 06:04:36;;;;;;;17.07;15.30;;;3.40;99.90;;;;;;6150638;28;20483;-65
2021/12/05 06:07:44;;;;;;;18.67;16.67;;;3.40;99.90;;;;;;6150374;28;20482;-65
2021/12/05 06:10:47;;;;;;;22.23;17.60;;;3.40;99.90;;;;;;6150706;28;20490;-65
2021/12/05 06:13:51;;;;;;;17.97;16.03;;;3.50;99.90;;;;;;6151131;28;20980;-66
2021/12/05 06:16:56;;;;;;;17.73;15.83;;;3.50;99.90;;;;;;6150237;28;20494;-65
2021/12/05 06:19:59;;;;;;;21.73;16.60;;;3.60;99.90;;;;;;6150217;28;20776;-65
2021/12/05 06:23:03;;;;;;;17.30;15.47;;;3.70;99.90;;;;;;6150921;28;20497;-65
2021/12/05 06:26:09;;;;;;;18.60;15.53;;;3.70;99.90;;;;;;6150303;28;20475;-66
2021/12/05 06:29:16;;;;;;;17.10;14.27;;;3.70;99.90;;;;;;6150376;28;20475;-65
2021/12/05 06:32:41;;;;;;;19.37;15.80;;;3.80;99.90;;;;;;6150092;28;20482;-65
2021/12/05 06:39:23;;;;;;;16.60;14.00;;;3.80;99.90;;;;;;6150040;28;20961;-65
2021/12/05 06:42:48;;;;;;;16.00;14.30;;;3.80;99.90;;;;;;6150668;28;20540;-66
2021/12/05 06:46:01;;;;;;;22.73;18.73;;;3.90;99.90;;;;;;6150181;28;20483;-65
2021/12/05 06:49:06;;;;;;;21.83;16.57;;;4.00;99.90;;;;;;6149815;28;20485;-65
2021/12/05 06:52:10;;;;;;;19.27;15.80;;;4.00;99.90;;;;;;6149983;28;20950;-65
2021/12/05 06:55:15;;;;;;;17.13;15.40;;;4.00;99.90;;;;;;6145335;28;20482;-65
2021/12/05 06:58:18;;;;;;;18.90;16.07;;;4.10;99.90;;;;;;6149494;28;20481;-64
2021/12/05 07:01:22;;;;;;;18.00;15.20;;;4.10;99.90;;;;;;6153912;28;20475;-64
2021/12/05 07:04:49;;;;;;;18.37;14.97;;;4.20;99.90;;;;;;6157495;28;20557;-64
2021/12/05 07:07:52;;;;;;;18.07;14.37;;;4.10;99.90;;;;;;6157607;28;20490;-64
2021/12/05 07:11:01;;;;;;;21.40;15.20;;;4.20;99.90;;;;;;6157670;28;20470;-64
2021/12/05 07:20:48;;;;;;;19.57;16.20;;;4.20;99.90;;;;;;6282726;28;20484;-64
2021/12/05 07:24:01;;;;;;;17.20;14.47;;;4.20;99.90;;;;;;6282850;28;20478;-64
2021/12/05 07:40:27;;;;;;;15.80;14.10;;;4.40;99.90;;;;;;6282587;28;20470;-64
2021/12/05 07:43:30;;;;;;;17.20;15.03;;;4.40;99.90;;;;;;6282848;28;20474;-64
2021/12/05 07:46:34;;;;;;;17.53;13.63;;;4.50;99.90;;;;;;6282366;28;20477;-64
2021/12/05 07:49:37;;;;;;;18.23;14.10;;;4.50;99.90;;;;;;6282832;28;21079;-63
2021/12/05 07:52:45;;;;;;;15.40;13.30;;;4.50;99.90;;;;;;6282211;28;20497;-63
2021/12/05 07:55:53;;;;;;;16.33;14.47;;;4.50;99.90;;;;;;6282020;28;20485;-64
2021/12/05 07:59:08;;;;;;;20.13;15.83;;;4.40;99.90;;;;;;6282297;28;20461;-63
2021/12/05 08:15:44;;;;;;;17.40;15.13;;;4.30;99.90;;;;;;6278690;28;20478;-64
2021/12/05 08:18:48;;;;;;;16.93;14.30;;;4.40;99.90;;;;;;6279221;28;20473;-63
2021/12/05 08:21:55;;;;;;;18.50;13.97;;;4.40;99.90;;;;;;6282126;28;20474;-64
2021/12/05 08:25:09;;;;;;;16.30;13.63;;;4.40;99.90;;;;;;6278441;28;20477;-64
2021/12/05 08:28:29;;;;;;;16.47;14.77;;;4.50;99.90;;;;;;6278019;28;20962;-64
2021/12/05 08:31:44;;;;;;;17.93;13.60;;;4.50;99.90;;;;;;6278693;28;20478;-64
2021/12/05 08:35:03;;;;;;;21.03;14.80;;;4.60;99.90;;;;;;6278198;28;20808;-64
2021/12/05 08:39:08;;;;;;;17.30;15.40;;;4.50;99.90;;;;;;6277797;28;20458;-64
2021/12/05 09:22:51;;;;;;;18.20;15.77;;;5.00;99.90;;;;;;6249051;28;20539;-69
2021/12/05 09:29:37;;;;;;;19.23;15.70;;;4.90;99.90;;;;;;6117546;28;20468;-68
2021/12/05 10:06:58;;;;;;;17.60;15.90;;;4.90;99.90;;;;;;6139370;28;20482;-66
2021/12/05 10:10:16;;;;;;;17.93;16.10;;;4.90;99.90;;;;;;6149615;28;20494;-66
2021/12/05 10:13:26;;;;;;;19.60;16.70;;;4.90;99.90;;;;;;6150397;28;20489;-65
2021/12/05 10:16:43;;;;;;;25.53;17.73;;;5.00;99.90;;;;;;6150151;28;20479;-66
2021/12/05 10:33:45;;;;;;;18.30;15.97;;;5.00;99.90;;;;;;6077216;29;20482;-66
2021/12/05 10:37:07;;;;;;;21.80;19.40;;;5.00;99.90;;;;;;6076222;29;20801;-68
2021/12/05 10:40:19;;;;;;;19.53;13.70;;;5.00;99.90;;;;;;6102403;29;20482;-66
2021/12/05 10:43:25;;;;;;;12.53;11.20;;;5.00;99.90;;;;;;6127494;28;20475;-65
2021/12/05 10:46:30;;;;;;;12.07;10.77;;;5.10;99.90;;;;;;6122740;28;20547;-65
2021/12/05 10:49:33;;;;;;;12.43;10.10;;;5.10;99.90;;;;;;6127370;28;20483;-66
2021/12/05 10:52:36;;;;;;;12.57;10.10;;;5.00;99.90;;;;;;6131482;28;20487;-66
2021/12/05 10:55:41;;;;;;;13.23;11.00;;;5.00;99.90;;;;;;6112910;28;20479;-65
2021/12/05 10:58:51;;;;;;;11.97;10.37;;;4.90;99.90;;;;;;6134771;29;20468;-66
2021/12/05 11:01:56;;;;;;;13.47;11.33;;;4.90;99.90;;;;;;6134264;28;20487;-65
2021/12/05 11:04:59;;;;;;;12.20;10.23;;;4.80;99.90;;;;;;6147727;28;20899;-66
2021/12/05 11:08:03;;;;;;;13.77;11.87;;;4.80;99.90;;;;;;6122951;28;20510;-66
2021/12/05 11:11:09;;;;;;;12.73;11.10;;;4.90;99.90;;;;;;6102957;28;20488;-67
2021/12/05 11:14:17;;;;;;;12.83;11.17;;;4.90;99.90;;;;;;6101921;28;20449;-67
2021/12/05 11:17:23;;;;;;;17.73;11.17;;;5.00;99.90;;;;;;6121513;28;20478;-67
2021/12/05 11:20:32;;;;;;;11.10;10.00;;;5.00;99.90;;;;;;6148852;28;20789;-67
2021/12/05 11:23:35;;;;;;;12.67;10.40;;;5.10;99.90;;;;;;6148910;28;20475;-67
2021/12/05 11:26:43;;;;;;;15.87;12.17;;;5.10;99.90;;;;;;6126553;28;20475;-67
2021/12/05 11:29:59;;;;;;;21.30;14.60;;;5.20;99.90;;;;;;6123571;28;20492;-67
2021/12/05 11:33:06;;;;;;;16.20;12.00;;;5.20;99.90;;;;;;6125624;28;20464;-67
2021/12/05 11:36:09;;;;;;;13.63;12.23;;;5.10;99.90;;;;;;6125509;28;20487;-67
2021/12/05 11:39:23;;;;;;;13.37;12.10;;;5.10;99.90;;;;;;6125527;28;20503;-67
2021/12/05 11:42:27;;;;;;;14.27;11.30;;;5.10;99.90;;;;;;6125211;28;20476;-67
2021/12/05 11:45:48;;;;;;;12.27;11.10;;;5.00;99.90;;;;;;6122436;28;20815;-67
2021/12/05 11:48:54;;;;;;;10.93;9.77;;;5.00;99.90;;;;;;6128807;28;20479;-67
2021/12/05 11:52:02;;;;;;;11.87;10.30;;;5.00;99.90;;;;;;6135953;28;20467;-67
2021/12/05 11:55:07;;;;;;;13.70;9.83;;;4.90;99.90;;;;;;6135026;28;20479;-67
2021/12/05 11:58:18;;;;;;;10.50;9.40;;;4.90;99.90;;;;;;6128849;28;20537;-67
2021/12/05 12:01:21;;;;;;;11.60;9.73;;;4.80;99.90;;;;;;6128876;28;20980;-67
2021/12/05 12:04:27;;;;;;;9.20;8.20;;;4.90;99.90;;;;;;6129292;28;20494;-68
2021/12/05 12:07:35;;;;;;;12.27;8.93;;;5.00;99.90;;;;;;6128934;28;20554;-68
2021/12/05 12:10:41;;;;;;;11.13;9.20;;;5.00;99.90;;;;;;6128503;28;20820;-68
2021/12/05 12:13:47;;;;;;;12.07;9.10;;;5.10;99.90;;;;;;6128307;28;20567;-68
2021/12/05 12:16:51;;;;;;;11.10;9.97;;;5.10;99.90;;;;;;6128355;28;20488;-68
2021/12/05 12:19:55;;;;;;;10.20;9.20;;;5.20;99.90;;;;;;6130656;28;20514;-68
2021/12/05 12:22:58;;;;;;;10.03;8.33;;;5.20;99.90;;;;;;6133940;28;21121;-68
2021/12/05 12:26:05;;;;;;;10.00;8.10;;;5.30;99.90;;;;;;6144004;28;20475;-67
2021/12/05 12:29:11;;;;;;;9.70;8.77;;;5.30;99.90;;;;;;6132384;28;20479;-68
2021/12/05 12:32:22;;;;;;;8.07;7.37;;;5.30;99.90;;;;;;6143593;28;20439;-68
2021/12/05 12:35:28;;;;;;;8.60;6.50;;;5.40;99.90;;;;;;6133170;28;20475;-67
2021/12/05 12:38:36;;;;;;;8.13;7.43;;;5.50;99.90;;;;;;6138583;28;20475;-67
2021/12/05 12:41:40;;;;;;;8.57;7.77;;;5.60;99.90;;;;;;6141280;28;20788;-67
2021/12/05 12:45:10;;;;;;;7.50;6.87;;;5.60;99.90;;;;;;6138575;28;20478;-68
2021/12/05 12:48:16;;;;;;;7.53;6.90;;;5.70;99.90;;;;;;6138426;28;20471;-68
2021/12/05 12:51:35;;;;;;;8.13;7.43;;;5.70;99.90;;;;;;6140224;28;20486;-68
2021/12/05 12:54:43;;;;;;;6.93;6.23;;;5.80;99.90;;;;;;6134995;28;20480;-68
2021/12/05 12:57:47;;;;;;;6.83;5.60;;;5.80;99.90;;;;;;6138225;28;20806;-68
2021/12/05 13:00:51;;;;;;;6.87;6.27;;;5.70;99.90;;;;;;6138098;28;20803;-68
2021/12/05 13:10:46;;;;;;;10.23;6.70;;;5.60;99.90;;;;;;6083201;28;20476;-68
2021/12/05 13:14:00;;;;;;;6.50;5.90;;;5.70;99.90;;;;;;6103923;28;20488;-67
2021/12/05 13:17:05;;;;;;;5.40;4.90;;;5.60;99.90;;;;;;6102491;28;20456;-67
2021/12/05 13:20:10;;;;;;;6.20;5.60;;;5.70;99.90;;;;;;6127990;28;20444;-67
2021/12/05 13:23:16;;;;;;;6.67;5.33;;;5.70;99.90;;;;;;6125462;28;20438;-67
2021/12/05 13:26:27;;;;;;;6.50;5.90;;;5.80;99.90;;;;;;6125865;28;20478;-66
2021/12/05 13:29:32;;;;;;;6.27;5.67;;;5.80;99.90;;;;;;6126228;28;20471;-67
2021/12/05 13:32:37;;;;;;;8.27;6.50;;;5.80;99.90;;;;;;6126636;28;20475;-67
2021/12/05 13:35:40;;;;;;;7.70;6.73;;;5.70;99.90;;;;;;6124971;28;20476;-67
2021/12/05 13:38:43;;;;;;;8.10;7.33;;;5.70;99.90;;;;;;6125395;28;20915;-66
2021/12/05 13:42:00;;;;;;;8.00;7.17;;;5.60;99.90;;;;;;6125640;28;20482;-66
2021/12/05 13:45:21;;;;;;;8.70;6.90;;;5.50;99.90;;;;;;6125452;28;20487;-67
2021/12/05 13:48:29;;;;;;;10.90;9.77;;;5.50;99.90;;;;;;6125327;28;20468;-66
2021/12/05 13:51:33;;;;;;;10.50;9.43;;;5.50;99.90;;;;;;6130500;28;20486;-66
2021/12/05 13:54:36;;;;;;;13.73;11.90;;;5.40;99.90;;;;;;6150760;28;20477;-67
2021/12/05 13:57:40;;;;;;;15.53;13.93;;;5.30;99.90;;;;;;6150566;28;20483;-66
2021/12/05 14:00:46;;;;;;;20.00;16.67;;;5.20;99.90;;;;;;6150284;28;20471;-66
2021/12/05 14:03:59;;;;;;;19.60;17.50;;;5.10;99.90;;;;;;6150968;28;20478;-66
2021/12/05 14:07:04;;;;;;;22.73;18.70;;;5.00;99.90;;;;;;6151045;28;20477;-67
2021/12/05 14:10:09;;;;;;;24.20;19.27;;;5.00;99.90;;;;;;6149063;28;20478;-67
2021/12/05 14:13:13;;;;;;;25.47;19.50;;;4.90;99.90;;;;;;6150365;28;20813;-67
2021/12/05 14:16:17;;;;;;;21.17;19.07;;;4.70;99.90;;;;;;6150228;28;20585;-66
2021/12/05 14:19:24;;;;;;;23.30;19.87;;;4.70;99.90;;;;;;6149927;28;21055;-69
2021/12/05 14:22:30;;;;;;;26.40;20.47;;;4.60;99.90;;;;;;6141049;28;20475;-68
2021/12/05 14:25:33;;;;;;;27.63;22.73;;;4.60;99.90;;;;;;6135906;28;20948;-68
2021/12/05 14:28:37;;;;;;;25.60;21.37;;;4.60;99.90;;;;;;6126163;28;20471;-67
2021/12/05 14:31:43;;;;;;;21.53;18.57;;;4.60;99.90;;;;;;6126155;28;20969;-66
2021/12/05 14:34:48;;;;;;;28.40;19.50;;;4.50;99.90;;;;;;6126010;28;20487;-66
2021/12/05 14:37:53;;;;;;;24.83;21.60;;;4.50;99.90;;;;;;6126023;28;20479;-65
2021/12/05 14:40:57;;;;;;;20.97;18.77;;;4.50;99.90;;;;;;6125831;28;20479;-65
2021/12/05 14:44:00;;;;;;;21.10;18.97;;;4.50;99.90;;;;;;6126185;28;20948;-66
2021/12/05 14:47:06;;;;;;;21.60;19.30;;;4.50;99.90;;;;;;6125958;28;20452;-64
2021/12/05 14:50:14;;;;;;;28.17;21.13;;;4.50;99.90;;;;;;6125548;28;20476;-65
2021/12/05 14:53:18;;;;;;;24.50;20.07;;;4.40;99.90;;;;;;6143996;28;20435;-66
2021/12/05 14:56:28;;;;;;;24.60;21.90;;;4.30;99.90;;;;;;6149612;28;20609;-65
2021/12/05 14:59:35;;;;;;;23.83;20.43;;;4.30;99.90;;;;;;6149271;28;20947;-65
2021/12/05 15:02:39;;;;;;;25.33;21.20;;;4.20;99.90;;;;;;6149413;28;20837;-66
2021/12/05 15:05:47;;;;;;;23.90;20.97;;;4.20;99.90;;;;;;6149322;28;20482;-66
2021/12/05 15:08:50;;;;;;;25.37;21.30;;;4.30;99.90;;;;;;6149743;28;20554;-65
2021/12/05 15:11:58;;;;;;;36.90;24.23;;;4.30;99.90;;;;;;6148862;28;20479;-66
2021/12/05 15:15:04;;;;;;;29.57;23.67;;;4.20;99.90;;;;;;6149543;28;20474;-66
2021/12/05 15:18:15;;;;;;;30.20;23.67;;;4.20;99.90;;;;;;6132595;28;20484;-65
2021/12/05 15:21:21;;;;;;;29.87;23.50;;;4.20;99.90;;;;;;6126241;28;20487;-66
2021/12/05 15:24:27;;;;;;;31.37;25.00;;;4.20;99.90;;;;;;6125282;28;20478;-65
2021/12/05 15:27:32;;;;;;;28.43;22.77;;;4.20;99.90;;;;;;6129368;28;20955;-65
2021/12/05 15:30:38;;;;;;;32.40;24.80;;;4.10;99.90;;;;;;6129258;28;20487;-65
2021/12/05 15:33:41;;;;;;;33.97;23.57;;;4.10;99.90;;;;;;6129963;28;20829;-66
2021/12/05 15:36:46;;;;;;;25.47;22.63;;;4.10;99.90;;;;;;6128765;28;20483;-66
2021/12/05 15:39:51;;;;;;;28.00;21.63;;;4.20;99.90;;;;;;6129577;28;20479;-66
2021/12/05 15:43:00;;;;;;;32.93;24.10;;;4.20;99.90;;;;;;6129605;28;20499;-66
2021/12/05 15:46:07;;;;;;;34.90;25.17;;;4.20;99.90;;;;;;6129052;28;20479;-65
2021/12/05 15:49:11;;;;;;;29.27;22.27;;;4.20;99.90;;;;;;6129256;28;20486;-65
2021/12/05 15:52:15;;;;;;;29.43;23.20;;;4.20;99.90;;;;;;6138559;28;20470;-68
2021/12/05 15:55:23;;;;;;;31.40;22.83;;;4.20;99.90;;;;;;6131118;28;20471;-67
2021/12/05 15:58:31;;;;;;;27.20;20.03;;;4.10;99.90;;;;;;6129599;28;20487;-67
2021/12/05 16:01:37;;;;;;;32.30;22.00;;;4.20;99.90;;;;;;6129846;28;20471;-68
2021/12/05 16:04:41;;;;;;;23.70;20.47;;;4.20;99.90;;;;;;6130149;28;20489;-69
2021/12/05 16:07:47;;;;;;;27.53;20.57;;;4.20;99.90;;;;;;6128163;28;20939;-65
2021/12/05 16:10:57;;;;;;;22.53;18.63;;;4.20;99.90;;;;;;6128993;28;20494;-64
2021/12/05 16:14:00;;;;;;;23.10;16.30;;;4.20;99.90;;;;;;6252837;28;20450;-66
2021/12/05 16:17:15;;;;;;;19.87;16.87;;;4.10;99.90;;;;;;6260684;28;20473;-65
2021/12/05 16:20:22;;;;;;;23.27;17.67;;;4.20;99.90;;;;;;6278523;28;20907;-66
2021/12/05 16:23:27;;;;;;;21.47;18.90;;;4.20;99.90;;;;;;6278057;28;20834;-66
2021/12/05 16:26:32;;;;;;;22.20;17.33;;;4.20;99.90;;;;;;6251193;28;20462;-65
2021/12/05 16:29:37;;;;;;;22.77;17.70;;;4.10;99.90;;;;;;6253637;28;20459;-65
2021/12/05 16:32:40;;;;;;;24.27;19.37;;;4.20;99.90;;;;;;6252610;28;20487;-65
2021/12/05 16:35:49;;;;;;;27.60;19.83;;;4.20;99.90;;;;;;6252564;28;20466;-64
2021/12/05 16:38:53;;;;;;;28.10;21.17;;;4.20;99.90;;;;;;6253002;28;20552;-65
2021/12/05 16:41:59;;;;;;;24.67;19.60;;;4.30;99.90;;;;;;6252574;28;20869;-65
2021/12/05 16:45:03;;;;;;;21.20;18.30;;;4.30;99.90;;;;;;6253285;28;20481;-65
2021/12/05 16:48:06;;;;;;;21.17;18.37;;;4.30;99.90;;;;;;6252418;28;20788;-64
2021/12/05 16:51:12;;;;;;;23.83;19.63;;;4.40;99.90;;;;;;6253196;28;20947;-65
2021/12/05 16:54:21;;;;;;;23.57;20.27;;;4.40;99.90;;;;;;6277253;28;20466;-65
2021/12/05 16:57:29;;;;;;;26.87;19.97;;;4.50;99.90;;;;;;6277040;28;20474;-64
2021/12/05 17:00:35;;;;;;;27.80;21.90;;;4.50;99.90;;;;;;6276970;28;20477;-65
2021/12/05 17:03:44;;;;;;;26.73;20.33;;;4.40;99.90;;;;;;6276991;28;20484;-64
2021/12/05 17:06:52;;;;;;;26.70;20.77;;;4.40;99.90;;;;;;6276534;28;20470;-65
2021/12/05 17:09:56;;;;;;;25.73;21.70;;;4.40;99.90;;;;;;6276466;28;20473;-66
2021/12/05 17:13:12;;;;;;;28.40;20.53;;;4.40;99.90;;;;;;6276434;28;20481;-66
2021/12/05 17:16:18;;;;;;;29.97;23.60;;;4.40;99.90;;;;;;6276323;28;20494;-65
2021/12/05 17:19:27;;;;;;;29.93;21.40;;;4.50;99.90;;;;;;6276698;28;20470;-65
2021/12/05 17:22:30;;;;;;;23.83;18.20;;;4.50;99.90;;;;;;6276515;28;20774;-65
2021/12/05 17:25:37;;;;;;;21.07;18.80;;;4.50;99.90;;;;;;6257495;28;20971;-65
2021/12/05 17:28:44;;;;;;;22.60;17.67;;;4.50;99.90;;;;;;6266912;28;20784;-65
2021/12/05 17:31:50;;;;;;;23.37;17.83;;;4.40;99.90;;;;;;6264549;28;20480;-65
2021/12/05 17:34:56;;;;;;;22.50;17.33;;;4.30;99.90;;;;;;6271810;28;20488;-64
2021/12/05 17:38:00;;;;;;;20.63;16.93;;;4.30;99.90;;;;;;6275778;28;20478;-65
2021/12/05 17:41:08;;;;;;;19.80;16.00;;;4.30;99.90;;;;;;6150395;28;20462;-65
2021/12/05 17:44:15;;;;;;;21.60;16.83;;;4.30;99.90;;;;;;6150536;28;20528;-64
2021/12/05 17:47:20;;;;;;;23.00;16.07;;;4.30;99.90;;;;;;6151408;28;20459;-66
2021/12/05 17:50:24;;;;;;;18.57;15.50;;;4.30;99.90;;;;;;6150759;28;20947;-66
2021/12/05 17:53:34;;;;;;;19.43;16.37;;;4.30;99.90;;;;;;6151250;28;20482;-65
2021/12/05 17:56:43;;;;;;;19.40;16.77;;;4.30;99.90;;;;;;6149990;28;20475;-65
2021/12/05 17:59:55;;;;;;;20.03;17.10;;;4.30;99.90;;;;;;6150622;28;20482;-64
2021/12/05 18:03:00;;;;;;;20.30;17.07;;;4.40;99.90;;;;;;6151052;28;20479;-63
2021/12/05 18:06:03;;;;;;;20.63;17.70;;;4.40;99.90;;;;;;6150259;28;20490;-63
2021/12/05 18:09:07;;;;;;;18.57;16.73;;;4.40;99.90;;;;;;6150497;28;20467;-63
2021/12/05 18:12:19;;;;;;;18.50;16.10;;;4.40;99.90;;;;;;6150534;28;20570;-63
2021/12/05 18:15:28;;;;;;;23.47;17.20;;;4.40;99.90;;;;;;6150209;28;20478;-64
2021/12/05 18:18:33;;;;;;;19.70;17.30;;;4.40;99.90;;;;;;6150505;28;20475;-63
2021/12/05 18:21:38;;;;;;;20.37;17.40;;;4.40;99.90;;;;;;6150364;28;20493;-63
2021/12/05 18:24:44;;;;;;;23.17;17.23;;;4.50;99.90;;;;;;6142840;28;20976;-65
2021/12/05 18:27:50;;;;;;;21.93;18.67;;;4.40;99.90;;;;;;6126194;28;20475;-64
2021/12/05 18:30:54;;;;;;;21.13;16.20;;;4.40;99.90;;;;;;6126486;28;20475;-65
2021/12/05 18:34:00;;;;;;;18.80;16.77;;;4.40;99.90;;;;;;6126113;28;20479;-64
2021/12/05 18:37:05;;;;;;;20.30;18.17;;;4.50;99.90;;;;;;6123047;28;20507;-65
2021/12/05 18:40:10;;;;;;;26.00;21.10;;;4.50;99.90;;;;;;6126756;28;20796;-65
2021/12/05 18:43:23;;;;;;;27.37;21.97;;;4.60;99.90;;;;;;6126553;28;20784;-65
2021/12/05 18:46:26;;;;;;;19.80;17.70;;;4.60;99.90;;;;;;6126332;28;20800;-65
2021/12/05 18:49:30;;;;;;;18.67;16.47;;;4.60;99.90;;;;;;6125568;28;20486;-66
2021/12/05 18:52:34;;;;;;;25.13;21.70;;;4.60;99.90;;;;;;6136599;28;20479;-65
2021/12/05 18:55:38;;;;;;;29.70;22.20;;;4.60;99.90;;;;;;6142534;28;20793;-66
2021/12/05 18:58:43;;;;;;;23.90;19.83;;;4.60;99.90;;;;;;6125459;28;20486;-64
2021/12/05 19:05:16;;;;;;;22.97;18.43;;;4.70;99.90;;;;;;6125570;28;20557;-63
2021/12/05 19:08:36;;;;;;;23.17;18.30;;;4.60;99.90;;;;;;6127044;28;20428;-64
2021/12/05 19:11:47;;;;;;;23.50;17.83;;;4.60;99.90;;;;;;6126407;28;20480;-66
2021/12/05 19:14:55;;;;;;;20.50;17.20;;;4.60;99.90;;;;;;6126220;28;20475;-65
2021/12/05 19:17:58;;;;;;;19.73;17.03;;;4.60;99.90;;;;;;6124801;28;20487;-63
2021/12/05 19:21:04;;;;;;;22.27;18.93;;;4.50;99.90;;;;;;6126522;28;20472;-66
2021/12/05 19:24:08;;;;;;;21.43;17.50;;;4.50;99.90;;;;;;6126519;28;20499;-65
2021/12/05 19:27:15;;;;;;;22.17;18.90;;;4.50;99.90;;;;;;6125124;28;20484;-63
2021/12/05 19:30:25;;;;;;;21.30;17.40;;;4.50;99.90;;;;;;6125420;28;20534;-63
2021/12/05 19:33:30;;;;;;;24.10;17.50;;;4.50;99.90;;;;;;6125257;28;20487;-63
2021/12/05 19:36:34;;;;;;;22.57;19.00;;;4.50;99.90;;;;;;6125393;28;20475;-62
2021/12/05 19:39:38;;;;;;;19.70;16.70;;;4.30;99.90;;;;;;6125057;28;20479;-62
2021/12/05 19:42:44;;;;;;;21.70;18.50;;;4.40;99.90;;;;;;6125104;28;20478;-62
2021/12/05 19:45:48;;;;;;;22.77;17.63;;;4.40;99.90;;;;;;6125726;28;20815;-61
2021/12/05 19:48:52;;;;;;;25.97;18.57;;;4.40;99.90;;;;;;6126794;28;20479;-59
2021/12/05 19:51:56;;;;;;;25.57;19.60;;;4.40;99.90;;;;;;6132874;28;20845;-60
2021/12/05 19:55:00;;;;;;;22.10;18.67;;;4.40;99.90;;;;;;6149755;28;20483;-61
2021/12/05 19:58:05;;;;;;;27.03;20.30;;;4.40;99.90;;;;;;6149852;28;20492;-60
2021/12/05 20:01:10;;;;;;;22.83;18.10;;;4.40;99.90;;;;;;6150068;28;20867;-60
2021/12/05 20:04:14;;;;;;;22.10;18.77;;;4.30;99.90;;;;;;6149157;28;20477;-60
2021/12/05 20:07:18;;;;;;;24.73;18.73;;;4.30;99.90;;;;;;6148993;28;20479;-60
2021/12/05 20:10:26;;;;;;;23.20;19.63;;;4.20;99.90;;;;;;6152683;28;20513;-60
2021/12/05 20:13:30;;;;;;;25.53;20.10;;;4.10;99.90;;;;;;6153012;28;20569;-61
2021/12/05 20:16:35;;;;;;;28.17;21.00;;;4.10;99.90;;;;;;6148812;28;20499;-60